This is the latest recevied weather packets stored in our database for station/object KB6HGN. If no packets are shown the sender has not sent any weather packets the latest 10 day(s).
| Time | Temp. | Humidity | Pressure | Rain* | Wind** | Luminosity | Snow |
|---|---|---|---|---|---|---|---|
| 1777707004 | 16.11° C | 74% | 1014.6 hPa | 0 mm | - | 0 W/m² | - |
| 1777704904 | 17.22° C | 73% | 1014.5 hPa | 0 mm | - | 0 W/m² | - |
| 1777704605 | 17.22° C | 72% | 1014.5 hPa | 0 mm | - | 0 W/m² | - |
| 1777701904 | 17.78° C | 69% | 1014.9 hPa | 0 mm | - | 0 W/m² | - |
| 1777700104 | 18.33° C | 68% | 1014.6 hPa | 0 mm | - | 0 W/m² | - |
| 1777686003 | 25.56° C | 42% | 1011.8 hPa | 0 mm | - | 39 W/m² | - |
| 1777682704 | 27.22° C | 38% | 1011.8 hPa | 0 mm | - | 231 W/m² | - |
| 1777677904 | 28.33° C | 34% | 1011.5 hPa | 0 mm | - | 539 W/m² | - |
| 1777677304 | 27.78° C | 33% | 1011.6 hPa | 0 mm | - | 576 W/m² | - |
| 1777674305 | 27.22° C | 36% | 1012.5 hPa | 0 mm | - | 719 W/m² | - |
| 1777672505 | 26.67° C | 36% | 1012.8 hPa | 0 mm | - | 788 W/m² | - |
| 1777671004 | 26.11° C | 40% | 1013.2 hPa | 0 mm | - | 834 W/m² | - |
| 1777669805 | 25.56° C | 41% | 1013.5 hPa | 0 mm | - | 866 W/m² | - |
| 1777668304 | 25° C | 46% | 1013.5 hPa | 0 mm | - | 895 W/m² | - |
| 1777668005 | 24.44° C | 45% | 1013.5 hPa | 0 mm | - | 899 W/m² | - |
| 1777664104 | 22.78° C | 52% | 1014.2 hPa | 0 mm | - | 942 W/m² | - |
| 1777663205 | 21.67° C | 53% | 1014.5 hPa | 0 mm | - | 937 W/m² | - |
| 1777658704 | 20° C | 59% | 1015.5 hPa | 0 mm | - | 870 W/m² | - |
| 1777657805 | 19.44° C | 64% | 1015.6 hPa | 0 mm | - | 850 W/m² | - |
| 1777655404 | 17.78° C | 69% | 1015.9 hPa | 0 mm | - | 732 W/m² | - |
| 1777654805 | 17.22° C | 74% | 1015.9 hPa | 0 mm | - | 691 W/m² | - |
| 1777654504 | 17.22° C | 74% | 1015.9 hPa | 0 mm | - | 663 W/m² | - |
| 1777653904 | 16.67° C | 75% | 1015.9 hPa | 0 mm | - | 615 W/m² | - |
| 1777651804 | 16.11° C | 77% | 1015.9 hPa | 0 mm | - | 438 W/m² | - |
| 1777648205 | 15.56° C | 83% | 1015.6 hPa | 0 mm | - | 184 W/m² | - |
* Rain latest hour (hover to see other rain measurements)
** Current wind speed in m/s (hover to see current wind gust speed)